createdAt,value
2022-12-01T00:01:19.862Z,76.43
2022-12-01T00:03:47.758Z,75.72
2022-12-01T00:06:17.412Z,76.60
2022-12-01T00:09:06.440Z,77.22
2022-12-01T00:11:35.596Z,76.40
2022-12-01T00:14:03.756Z,77.06
2022-12-01T00:16:32.037Z,77.37
2022-12-01T00:18:59.844Z,77.66
2022-12-01T00:21:28.272Z,77.78
2022-12-01T00:23:57.831Z,77.62
2022-12-01T00:26:26.788Z,76.77
2022-12-01T00:28:57.442Z,75.20
2022-12-01T00:31:25.971Z,73.99
2022-12-01T00:33:56.527Z,74.88
2022-12-01T00:36:24.614Z,74.35
2022-12-01T00:38:53.658Z,74.67
2022-12-01T00:41:21.764Z,74.36
2022-12-01T00:43:51.018Z,73.72
2022-12-01T00:46:20.132Z,73.85
2022-12-01T00:48:47.930Z,74.83
2022-12-01T00:51:15.579Z,74.40
2022-12-01T00:53:43.355Z,74.47
2022-12-01T00:56:11.137Z,74.59
2022-12-01T00:58:38.857Z,74.43
2022-12-01T01:01:07.151Z,75.06
2022-12-01T01:03:36.264Z,75.23
2022-12-01T01:06:08.716Z,75.42
2022-12-01T01:08:36.833Z,76.12
2022-12-01T01:11:07.237Z,75.17
2022-12-01T01:13:34.925Z,75.22
2022-12-01T01:16:05.629Z,75.88
2022-12-01T01:18:33.595Z,76.96
2022-12-01T01:21:05.995Z,74.26
2022-12-01T01:23:36.038Z,75.76
2022-12-01T01:26:05.450Z,76.52
2022-12-01T01:28:33.859Z,76.42
2022-12-01T01:31:06.185Z,76.16
2022-12-01T01:33:33.845Z,77.04
2022-12-01T01:36:03.780Z,76.85
2022-12-01T01:38:32.092Z,78.17
2022-12-01T01:40:59.764Z,76.41
2022-12-01T01:43:45.036Z,76.21
2022-12-01T01:46:14.487Z,76.80
2022-12-01T01:48:44.329Z,76.25
2022-12-01T01:51:15.400Z,75.06
2022-12-01T01:53:46.287Z,75.52
2022-12-01T01:56:14.026Z,75.38
2022-12-01T01:58:42.379Z,74.54
2022-12-01T02:01:10.037Z,75.34
2022-12-01T02:03:40.672Z,75.30
2022-12-01T02:06:09.584Z,75.82
2022-12-01T02:08:38.877Z,75.18
2022-12-01T02:11:32.460Z,73.86
2022-12-01T02:14:08.526Z,75.54
2022-12-01T02:16:45.386Z,74.84
2022-12-01T02:19:34.462Z,75.18
2022-12-01T02:22:15.827Z,75.79
2022-12-01T02:25:01.045Z,76.02
2022-12-01T02:27:44.858Z,76.14
2022-12-01T02:30:15.948Z,74.98
2022-12-01T02:33:05.470Z,75.18
2022-12-01T02:35:37.085Z,75.67
2022-12-01T02:38:12.800Z,75.15
2022-12-01T02:40:45.124Z,76.57
2022-12-01T02:43:18.965Z,75.72
2022-12-01T02:45:51.296Z,77.89
2022-12-01T02:48:27.615Z,77.25
2022-12-01T02:50:58.723Z,75.28
2022-12-01T02:53:26.615Z,75.78
2022-12-01T02:55:56.362Z,74.86
2022-12-01T02:58:24.161Z,74.93
2022-12-01T03:01:04.640Z,74.36
2022-12-01T03:03:48.585Z,75.21
2022-12-01T03:06:24.174Z,73.97
2022-12-01T03:08:59.628Z,74.31
2022-12-01T03:11:36.794Z,73.41
2022-12-01T03:14:14.214Z,74.50
2022-12-01T03:16:50.724Z,74.11
2022-12-01T03:19:28.089Z,74.91
2022-12-01T03:22:02.409Z,75.55
2022-12-01T03:24:32.929Z,75.42
2022-12-01T03:27:02.307Z,75.29
2022-12-01T03:29:33.863Z,74.84
2022-12-01T03:32:07.226Z,74.12
2022-12-01T03:34:38.872Z,75.70
2022-12-01T03:37:10.461Z,75.86
2022-12-01T03:39:40.752Z,74.63
2022-12-01T03:42:14.984Z,75.18
2022-12-01T03:44:47.603Z,75.01
2022-12-01T03:47:18.244Z,74.83
2022-12-01T03:49:49.381Z,75.44
2022-12-01T03:52:25.518Z,75.35
2022-12-01T03:55:01.135Z,75.62
2022-12-01T03:57:32.794Z,75.41
2022-12-01T04:00:00.826Z,76.16
2022-12-01T04:02:28.997Z,76.05
2022-12-01T04:04:58.078Z,76.13
2022-12-01T04:07:25.814Z,75.05
2022-12-01T04:09:53.479Z,75.37
2022-12-01T04:12:29.366Z,75.62
2022-12-01T04:14:57.916Z,76.71
2022-12-01T04:17:25.822Z,75.60
2022-12-01T04:19:53.457Z,75.82
2022-12-01T04:22:23.167Z,75.91
2022-12-01T04:24:50.742Z,75.26
2022-12-01T04:27:18.505Z,76.11
2022-12-01T04:29:46.280Z,76.23
2022-12-01T04:32:13.990Z,75.65
2022-12-01T04:34:41.672Z,75.86
2022-12-01T04:37:10.043Z,76.75
2022-12-01T04:39:39.044Z,76.66
2022-12-01T04:42:06.839Z,76.92
2022-12-01T04:44:35.182Z,76.42
2022-12-01T04:47:03.307Z,76.64
2022-12-01T04:49:31.351Z,76.28
2022-12-01T04:51:59.229Z,77.38
2022-12-01T04:54:27.012Z,76.75
2022-12-01T04:56:55.994Z,77.81
2022-12-01T04:59:23.694Z,78.16
2022-12-01T05:01:51.297Z,78.06
2022-12-01T05:04:19.014Z,78.47
2022-12-01T05:06:46.779Z,79.07
2022-12-01T05:09:17.796Z,79.12
2022-12-01T05:11:46.067Z,79.40
2022-12-01T05:14:15.221Z,78.83
2022-12-01T05:16:42.876Z,79.05
2022-12-01T05:19:27.508Z,78.95
2022-12-01T05:21:55.266Z,79.71
2022-12-01T05:24:23.196Z,80.14
2022-12-01T05:26:50.857Z,78.84
2022-12-01T05:29:20.002Z,80.02
2022-12-01T05:31:47.761Z,80.33
2022-12-01T05:34:15.582Z,79.51
2022-12-01T05:36:43.152Z,79.83
2022-12-01T05:39:10.793Z,80.06
2022-12-01T05:41:38.355Z,80.67
2022-12-01T05:44:06.232Z,80.51
2022-12-01T05:46:35.248Z,80.34
2022-12-01T05:49:02.852Z,80.19
2022-12-01T05:51:30.430Z,80.58
2022-12-01T05:54:00.128Z,80.82
2022-12-01T05:56:27.763Z,80.55
2022-12-01T05:58:55.368Z,80.13
2022-12-01T06:01:23.105Z,80.39
2022-12-01T06:03:53.536Z,80.53
2022-12-01T06:06:21.445Z,80.73
2022-12-01T06:08:49.058Z,81.92
2022-12-01T06:11:16.813Z,81.30
2022-12-01T06:13:44.492Z,81.64
2022-12-01T06:16:12.216Z,80.55
2022-12-01T06:18:40.474Z,80.99
2022-12-01T06:21:09.505Z,82.05
2022-12-01T06:23:37.264Z,80.95
2022-12-01T06:26:05.099Z,80.91
2022-12-01T06:28:32.698Z,81.94
2022-12-01T06:31:03.394Z,81.51
2022-12-01T06:33:32.374Z,81.21
2022-12-01T06:36:00.124Z,81.06
2022-12-01T06:38:32.168Z,81.33
2022-12-01T06:40:59.818Z,82.06
2022-12-01T06:43:27.654Z,82.38
2022-12-01T06:46:00.816Z,81.88
2022-12-01T06:48:29.507Z,82.83
2022-12-01T06:50:58.343Z,82.72
2022-12-01T06:53:27.216Z,82.74
2022-12-01T06:55:59.839Z,81.69
2022-12-01T06:58:27.518Z,82.45
2022-12-01T07:00:55.573Z,82.83
2022-12-01T07:03:23.260Z,83.89
2022-12-01T07:05:58.388Z,82.99
2022-12-01T07:08:26.071Z,84.32
2022-12-01T07:10:59.850Z,81.68
2022-12-01T07:13:32.828Z,81.64
2022-12-01T07:16:00.651Z,82.55
2022-12-01T07:18:28.272Z,82.35
2022-12-01T07:20:59.875Z,82.65
2022-12-01T07:23:27.503Z,82.78
2022-12-01T07:26:00.988Z,82.74
2022-12-01T07:28:29.494Z,86.22
2022-12-01T07:31:02.940Z,84.98
2022-12-01T07:33:30.797Z,83.52
2022-12-01T07:35:58.522Z,82.93
2022-12-01T07:38:26.504Z,82.08
2022-12-01T07:40:54.100Z,83.21
2022-12-01T07:43:23.268Z,82.71
2022-12-01T07:45:50.954Z,81.94
2022-12-01T07:48:18.576Z,82.50
2022-12-01T07:50:46.178Z,81.70
2022-12-01T07:53:13.772Z,81.78
2022-12-01T07:55:48.370Z,81.24
2022-12-01T07:58:15.971Z,80.84
2022-12-01T08:00:44.989Z,80.14
2022-12-01T08:03:12.692Z,81.43
2022-12-01T08:05:40.333Z,82.01
2022-12-01T08:08:08.017Z,82.24
2022-12-01T08:10:36.153Z,82.98
2022-12-01T08:13:03.873Z,82.20
2022-12-01T08:15:31.497Z,81.82
2022-12-01T08:18:03.578Z,81.49
2022-12-01T08:20:31.380Z,80.48
2022-12-01T08:23:01.576Z,81.00
2022-12-01T08:25:29.655Z,81.41
2022-12-01T08:27:57.815Z,81.21
2022-12-01T08:30:25.434Z,81.86
2022-12-01T08:32:54.314Z,81.66
2022-12-01T08:35:23.687Z,80.40
2022-12-01T08:37:53.058Z,80.64
2022-12-01T08:40:20.713Z,81.87
2022-12-01T08:42:48.559Z,81.82
2022-12-01T08:45:16.222Z,80.92
2022-12-01T08:47:43.799Z,80.83
2022-12-01T08:50:11.960Z,80.14
2022-12-01T08:52:40.887Z,80.72
2022-12-01T08:55:09.691Z,80.45
2022-12-01T08:57:37.315Z,80.51
2022-12-01T09:00:05.524Z,80.35
2022-12-01T09:02:33.256Z,79.96
2022-12-01T09:05:00.988Z,80.57
2022-12-01T09:07:28.701Z,80.75
2022-12-01T09:09:57.708Z,80.28
2022-12-01T09:12:25.372Z,81.19
2022-12-01T09:14:53.063Z,80.83
2022-12-01T09:17:20.692Z,81.67
2022-12-01T09:19:48.600Z,80.71
2022-12-01T09:22:16.413Z,81.46
2022-12-01T09:24:44.014Z,80.16
2022-12-01T09:27:13.122Z,80.94
2022-12-01T09:29:40.709Z,80.03
2022-12-01T09:32:08.316Z,79.56
2022-12-01T09:34:35.926Z,79.52
2022-12-01T09:37:03.554Z,80.03
2022-12-01T09:39:31.210Z,78.92
2022-12-01T09:42:08.253Z,80.49
2022-12-01T09:44:42.091Z,79.71
2022-12-01T09:47:19.056Z,80.84
2022-12-01T09:49:56.488Z,84.84
2022-12-01T09:52:26.549Z,82.00
2022-12-01T09:54:56.220Z,79.84
2022-12-01T09:57:31.133Z,78.36
2022-12-01T10:00:02.966Z,79.37
2022-12-01T10:02:43.401Z,79.88
2022-12-01T10:05:21.013Z,80.38
2022-12-01T10:07:53.609Z,79.93
2022-12-01T10:10:28.568Z,78.92
2022-12-01T10:12:56.441Z,79.38
2022-12-01T10:15:36.304Z,81.00
2022-12-01T10:18:21.369Z,80.29
2022-12-01T10:20:55.857Z,78.14
2022-12-01T10:23:39.422Z,78.64
2022-12-01T10:26:14.030Z,79.68
2022-12-01T10:29:11.545Z,79.69
2022-12-01T10:31:49.240Z,81.00
2022-12-01T10:34:19.141Z,81.97
2022-12-01T10:36:47.007Z,80.59
2022-12-01T10:39:19.914Z,80.19
2022-12-01T10:41:49.874Z,78.03
2022-12-01T10:44:19.280Z,78.23
2022-12-01T10:46:53.429Z,77.12
2022-12-01T10:49:22.149Z,77.99
2022-12-01T10:51:55.179Z,77.96
2022-12-01T10:54:25.342Z,77.72
2022-12-01T10:56:57.519Z,78.21
2022-12-01T10:59:29.417Z,77.45
2022-12-01T11:02:00.320Z,77.61
2022-12-01T11:04:37.470Z,76.44
2022-12-01T11:07:05.312Z,77.02
2022-12-01T11:09:33.726Z,77.14
2022-12-01T11:12:03.095Z,77.22
2022-12-01T11:14:42.108Z,97.51
2022-12-01T11:17:29.315Z,100.00
2022-12-01T11:19:57.216Z,96.31
2022-12-01T11:22:27.607Z,87.76
2022-12-01T11:25:04.874Z,83.81
2022-12-01T11:27:36.221Z,71.73
2022-12-01T11:30:07.015Z,71.83
2022-12-01T11:32:39.800Z,73.57
2022-12-01T11:35:17.872Z,73.98
2022-12-01T11:38:13.325Z,73.56
2022-12-01T11:40:46.421Z,74.06
2022-12-01T11:43:24.483Z,76.14
2022-12-01T11:45:53.624Z,76.03
2022-12-01T11:48:27.145Z,85.79
2022-12-01T11:51:07.155Z,78.25
2022-12-01T11:53:36.940Z,77.63
2022-12-01T11:56:17.153Z,77.34
2022-12-01T11:58:46.781Z,76.27
2022-12-01T12:01:22.235Z,75.95
2022-12-01T12:04:00.008Z,75.99
2022-12-01T12:06:40.564Z,76.13
2022-12-01T12:09:31.825Z,76.56
2022-12-01T12:12:12.194Z,76.22
2022-12-01T12:14:53.715Z,76.88
2022-12-01T12:17:47.992Z,76.94
2022-12-01T12:20:28.981Z,76.88
2022-12-01T12:23:11.763Z,77.79
2022-12-01T12:25:53.593Z,77.08
2022-12-01T12:28:39.356Z,77.11
2022-12-01T12:31:17.860Z,76.88
2022-12-01T12:34:15.154Z,77.92
2022-12-01T12:36:52.796Z,81.45
2022-12-01T12:39:41.272Z,78.43
2022-12-01T12:42:20.555Z,77.81
2022-12-01T12:44:52.468Z,77.40
2022-12-01T12:47:32.241Z,77.22
2022-12-01T12:50:09.616Z,77.86
2022-12-01T12:52:41.805Z,75.81
2022-12-01T12:55:17.482Z,76.13
2022-12-01T12:57:49.319Z,77.15
2022-12-01T13:00:19.703Z,78.13
2022-12-01T13:02:51.531Z,78.04
2022-12-01T13:05:24.273Z,77.15
2022-12-01T13:07:59.598Z,77.63
2022-12-01T13:10:34.087Z,77.55
2022-12-01T13:13:12.718Z,78.34
2022-12-01T13:15:42.385Z,77.71
2022-12-01T13:18:26.616Z,77.97
2022-12-01T13:20:58.075Z,77.71
2022-12-01T13:23:27.436Z,77.87
2022-12-01T13:26:00.144Z,78.57
2022-12-01T13:28:30.372Z,76.46
2022-12-01T13:31:00.880Z,79.62
2022-12-01T13:33:29.088Z,78.82
2022-12-01T13:36:29.779Z,77.99
2022-12-01T13:38:57.795Z,77.26
2022-12-01T13:41:29.355Z,77.40
2022-12-01T13:44:04.702Z,77.05
2022-12-01T13:46:50.684Z,78.39
2022-12-01T13:49:34.775Z,77.48
2022-12-01T13:52:29.277Z,77.57
2022-12-01T13:55:26.686Z,78.16
2022-12-01T13:58:24.151Z,77.91
2022-12-01T14:00:52.141Z,77.76
2022-12-01T14:03:42.200Z,78.46
2022-12-01T14:06:22.623Z,77.11
2022-12-01T14:08:51.344Z,78.53
2022-12-01T14:11:22.457Z,77.86
2022-12-01T14:13:56.689Z,78.04
2022-12-01T14:16:25.133Z,78.17
2022-12-01T14:18:56.231Z,81.34
2022-12-01T14:21:43.245Z,80.25
2022-12-01T14:24:24.017Z,79.61
2022-12-01T14:26:53.582Z,79.43
2022-12-01T14:29:34.305Z,79.50
2022-12-01T14:32:25.884Z,78.36
2022-12-01T14:35:06.622Z,78.25
2022-12-01T14:37:43.398Z,78.23
2022-12-01T14:40:17.780Z,78.30
2022-12-01T14:43:06.723Z,78.36
2022-12-01T14:45:41.546Z,78.11
2022-12-01T14:48:14.942Z,78.78
2022-12-01T14:50:46.727Z,79.35
2022-12-01T14:53:23.473Z,80.08
2022-12-01T14:55:56.111Z,80.55
2022-12-01T14:58:29.247Z,80.32
2022-12-01T15:01:03.208Z,79.34
2022-12-01T15:03:36.361Z,79.58
2022-12-01T15:06:04.281Z,79.58
2022-12-01T15:08:42.031Z,79.37
2022-12-01T15:11:22.030Z,80.13
2022-12-01T15:13:51.450Z,80.67
2022-12-01T15:16:21.844Z,80.63
2022-12-01T15:18:50.158Z,80.41
2022-12-01T15:21:20.533Z,80.84
2022-12-01T15:23:56.361Z,81.01
2022-12-01T15:26:27.428Z,81.32
2022-12-01T15:29:16.289Z,80.51
2022-12-01T15:31:48.512Z,80.41
2022-12-01T15:34:19.899Z,80.29
2022-12-01T15:36:49.181Z,80.50
2022-12-01T15:39:19.169Z,79.94
2022-12-01T15:41:53.710Z,80.75
2022-12-01T15:44:26.833Z,80.20
2022-12-01T15:46:56.058Z,80.03
2022-12-01T15:49:29.324Z,80.69
2022-12-01T15:52:06.876Z,80.32
2022-12-01T15:54:35.162Z,80.30
2022-12-01T15:57:03.538Z,80.42
2022-12-01T15:59:36.783Z,81.22
2022-12-01T16:02:23.420Z,81.24
2022-12-01T16:05:01.191Z,81.41
2022-12-01T16:08:04.392Z,81.35
2022-12-01T16:10:39.286Z,81.57
2022-12-01T16:13:40.568Z,81.51
2022-12-01T16:16:39.923Z,81.42
2022-12-01T16:19:30.037Z,82.12
2022-12-01T16:22:02.495Z,81.31
2022-12-01T16:24:32.765Z,81.70
2022-12-01T16:27:04.619Z,81.20
2022-12-01T16:29:36.255Z,81.20
2022-12-01T16:32:20.751Z,81.25
2022-12-01T16:34:50.863Z,80.25
2022-12-01T16:37:18.475Z,81.10
2022-12-01T16:39:46.547Z,80.74
2022-12-01T16:42:15.934Z,80.79
2022-12-01T16:44:44.675Z,81.80
2022-12-01T16:47:17.133Z,81.56
2022-12-01T16:49:44.893Z,82.04
2022-12-01T16:55:01.922Z,83.76
2022-12-01T16:57:29.640Z,83.39
2022-12-01T16:59:57.246Z,83.06
2022-12-01T17:02:24.930Z,82.52
2022-12-01T17:04:52.813Z,81.46
2022-12-01T17:07:21.992Z,81.56
2022-12-01T17:09:49.683Z,85.28
2022-12-01T17:12:17.263Z,83.46
2022-12-01T17:14:44.911Z,82.99
2022-12-01T17:17:12.525Z,81.51
2022-12-01T17:19:40.121Z,81.11
2022-12-01T17:22:07.768Z,81.35
2022-12-01T17:24:36.750Z,81.37
2022-12-01T17:27:04.504Z,81.45
2022-12-01T17:29:32.180Z,82.04
2022-12-01T17:31:59.855Z,81.74
2022-12-01T17:34:27.569Z,82.30
2022-12-01T17:36:55.268Z,82.03
2022-12-01T17:39:22.958Z,82.44
2022-12-01T17:41:51.899Z,83.08
2022-12-01T17:44:19.520Z,83.05
2022-12-01T17:46:47.214Z,83.35
2022-12-01T17:49:15.044Z,83.21
2022-12-01T17:51:43.792Z,82.92
2022-12-01T17:54:11.522Z,83.14
2022-12-01T17:56:39.139Z,83.95
2022-12-01T17:59:08.146Z,83.64
2022-12-01T18:01:35.995Z,82.82
2022-12-01T18:04:03.772Z,83.20
2022-12-01T18:06:31.516Z,83.77
2022-12-01T18:09:00.477Z,84.24
2022-12-01T18:11:28.670Z,84.46
2022-12-01T18:13:56.417Z,84.52
2022-12-01T18:16:28.041Z,84.83
2022-12-01T18:18:57.748Z,84.09
2022-12-01T18:21:26.466Z,84.26
2022-12-01T18:23:55.627Z,83.97
2022-12-01T18:26:24.325Z,84.33
2022-12-01T18:28:54.786Z,84.66
2022-12-01T18:31:22.513Z,84.64
2022-12-01T18:33:51.668Z,84.10
2022-12-01T18:36:21.428Z,84.33
2022-12-01T18:38:49.981Z,83.69
2022-12-01T18:41:18.554Z,83.13
2022-12-01T18:43:46.534Z,83.24
2022-12-01T18:46:15.923Z,82.78
2022-12-01T18:48:45.961Z,82.79
2022-12-01T18:51:15.721Z,83.28
2022-12-01T18:53:45.310Z,83.29
2022-12-01T18:56:15.240Z,84.01
2022-12-01T18:58:43.898Z,83.66
2022-12-01T19:01:19.725Z,84.30
2022-12-01T19:03:48.009Z,83.95
2022-12-01T19:06:17.895Z,83.39
2022-12-01T19:08:47.399Z,84.04
2022-12-01T19:11:15.600Z,83.82
2022-12-01T19:13:43.259Z,84.38
2022-12-01T19:16:12.941Z,84.56
2022-12-01T19:18:41.372Z,84.26
2022-12-01T19:21:11.335Z,84.03
2022-12-01T19:23:40.321Z,83.74
2022-12-01T19:26:10.913Z,83.65
2022-12-01T19:28:40.215Z,83.40
2022-12-01T19:31:09.454Z,84.64
2022-12-01T19:33:37.122Z,84.06
2022-12-01T19:36:06.443Z,83.63
2022-12-01T19:38:34.122Z,84.21
2022-12-01T19:41:03.560Z,84.53
2022-12-01T19:43:31.242Z,84.79
2022-12-01T19:46:04.482Z,83.47
2022-12-01T19:48:32.147Z,84.37
2022-12-01T19:50:59.797Z,84.83
2022-12-01T19:53:31.970Z,84.74
2022-12-01T19:56:03.786Z,84.12
2022-12-01T19:58:34.337Z,84.64
2022-12-01T20:01:06.270Z,85.08
2022-12-01T20:03:33.970Z,84.46
2022-12-01T20:06:03.040Z,84.82
2022-12-01T20:08:35.060Z,85.01
2022-12-01T20:11:05.730Z,84.70
2022-12-01T20:13:34.279Z,85.01
2022-12-01T20:16:03.645Z,85.61
2022-12-01T20:18:31.371Z,84.54
2022-12-01T20:21:07.630Z,84.93
2022-12-01T20:23:36.702Z,85.57
2022-12-01T20:26:07.910Z,85.56
2022-12-01T20:28:37.209Z,85.13
2022-12-01T20:31:10.874Z,85.83
2022-12-01T20:33:38.886Z,85.84
2022-12-01T20:36:07.135Z,85.33
2022-12-01T20:38:35.461Z,85.41
2022-12-01T20:41:05.200Z,85.02
2022-12-01T20:43:33.465Z,85.31
2022-12-01T20:46:01.695Z,85.98
2022-12-01T20:48:29.712Z,85.36
2022-12-01T20:50:57.462Z,84.90
2022-12-01T20:53:25.083Z,85.05
2022-12-01T20:55:52.724Z,85.86
2022-12-01T20:58:21.753Z,86.68
2022-12-01T21:00:49.511Z,85.13
2022-12-01T21:03:17.118Z,85.87
2022-12-01T21:05:45.217Z,85.79
2022-12-01T21:08:14.357Z,85.29
2022-12-01T21:10:44.785Z,86.44
2022-12-01T21:13:37.021Z,85.89
2022-12-01T21:16:13.735Z,86.17
2022-12-01T21:18:48.673Z,86.42
2022-12-01T21:21:27.517Z,86.54
2022-12-01T21:24:09.596Z,85.89
2022-12-01T21:26:37.980Z,86.84
2022-12-01T21:29:17.742Z,87.29
2022-12-01T21:31:47.417Z,86.00
2022-12-01T21:34:20.030Z,86.03
2022-12-01T21:36:49.828Z,85.54
2022-12-01T21:39:20.490Z,86.64
2022-12-01T21:41:50.117Z,85.92
2022-12-01T21:44:19.978Z,86.13
2022-12-01T21:46:53.569Z,86.24
2022-12-01T21:49:23.298Z,86.83
2022-12-01T21:51:53.559Z,86.97
2022-12-01T21:54:22.563Z,86.58
2022-12-01T21:56:53.029Z,87.14
2022-12-01T21:59:22.499Z,87.72
2022-12-01T22:09:19.839Z,88.19
2022-12-01T22:11:52.741Z,88.35
2022-12-01T22:14:23.008Z,88.13
2022-12-01T22:16:56.289Z,88.66
2022-12-01T22:19:31.590Z,87.95
2022-12-01T22:22:04.397Z,87.20
2022-12-01T22:24:40.280Z,87.83
2022-12-01T22:27:21.653Z,87.90
2022-12-01T22:29:51.943Z,87.86
2022-12-01T22:32:35.749Z,87.73
2022-12-01T22:35:20.466Z,86.86
2022-12-01T22:37:49.926Z,87.82
2022-12-01T22:40:39.837Z,88.80
2022-12-01T22:43:27.205Z,88.13
2022-12-01T22:46:21.331Z,88.23
2022-12-01T22:48:51.771Z,88.89
2022-12-01T22:51:26.089Z,88.63
2022-12-01T22:53:59.058Z,88.40
2022-12-01T22:56:37.517Z,88.67
2022-12-01T22:59:16.989Z,89.06
2022-12-01T23:01:50.366Z,89.06
2022-12-01T23:04:27.426Z,89.07
2022-12-01T23:07:04.577Z,89.16
2022-12-01T23:09:35.831Z,89.06
2022-12-01T23:12:21.097Z,88.68
2022-12-01T23:14:52.363Z,87.85
2022-12-01T23:17:22.933Z,88.49
2022-12-01T23:19:54.085Z,88.68
2022-12-01T23:22:21.766Z,89.08
2022-12-01T23:24:49.564Z,88.53
2022-12-01T23:27:18.809Z,88.54
2022-12-01T23:29:46.625Z,87.89
2022-12-01T23:32:14.198Z,88.85
2022-12-01T23:34:41.840Z,88.66
2022-12-01T23:37:25.200Z,88.94
2022-12-01T23:39:52.835Z,89.47
2022-12-01T23:42:20.421Z,89.69
2022-12-01T23:44:49.505Z,89.93
2022-12-01T23:47:20.830Z,89.15
2022-12-01T23:49:49.472Z,89.47
2022-12-01T23:52:21.900Z,88.90
2022-12-01T23:54:50.056Z,89.73
2022-12-01T23:57:21.692Z,89.38
2022-12-01T23:59:50.277Z,89.50
